sensor_id;sensor_type;location;lat;lon;timestamp;P1;durP1;ratioP1;P2;durP2;ratioP2
63536;SDS011;49686;51.880;5.632;2023-09-19T00:02:25;11.77;;;2.20;;
63536;SDS011;49686;51.880;5.632;2023-09-19T00:04:53;6.72;;;2.00;;
63536;SDS011;49686;51.880;5.632;2023-09-19T00:07:20;5.32;;;2.17;;
63536;SDS011;49686;51.880;5.632;2023-09-19T00:09:47;5.53;;;1.60;;
63536;SDS011;49686;51.880;5.632;2023-09-19T00:12:14;8.68;;;2.67;;
63536;SDS011;49686;51.880;5.632;2023-09-19T00:14:41;6.03;;;2.20;;
63536;SDS011;49686;51.880;5.632;2023-09-19T00:17:07;8.00;;;1.70;;
63536;SDS011;49686;51.880;5.632;2023-09-19T00:19:34;6.53;;;1.98;;
63536;SDS011;49686;51.880;5.632;2023-09-19T00:22:03;6.50;;;1.67;;
63536;SDS011;49686;51.880;5.632;2023-09-19T00:24:30;9.38;;;1.95;;
63536;SDS011;49686;51.880;5.632;2023-09-19T00:26:57;5.57;;;2.22;;
63536;SDS011;49686;51.880;5.632;2023-09-19T00:29:23;8.43;;;2.33;;
63536;SDS011;49686;51.880;5.632;2023-09-19T00:31:51;6.75;;;1.70;;
63536;SDS011;49686;51.880;5.632;2023-09-19T00:34:18;7.68;;;1.90;;
63536;SDS011;49686;51.880;5.632;2023-09-19T00:36:45;6.40;;;2.30;;
63536;SDS011;49686;51.880;5.632;2023-09-19T00:39:13;6.50;;;2.35;;
63536;SDS011;49686;51.880;5.632;2023-09-19T00:41:40;7.63;;;1.70;;
63536;SDS011;49686;51.880;5.632;2023-09-19T00:44:07;8.30;;;1.92;;
63536;SDS011;49686;51.880;5.632;2023-09-19T00:46:34;8.93;;;2.42;;
63536;SDS011;49686;51.880;5.632;2023-09-19T00:49:01;7.93;;;2.50;;
63536;SDS011;49686;51.880;5.632;2023-09-19T00:51:27;8.80;;;1.88;;
63536;SDS011;49686;51.880;5.632;2023-09-19T00:53:54;11.70;;;2.10;;
63536;SDS011;49686;51.880;5.632;2023-09-19T00:56:23;12.80;;;2.72;;
63536;SDS011;49686;51.880;5.632;2023-09-19T00:58:50;8.15;;;2.20;;
63536;SDS011;49686;51.880;5.632;2023-09-19T01:01:16;9.38;;;2.30;;
63536;SDS011;49686;51.880;5.632;2023-09-19T01:03:44;9.38;;;2.30;;
63536;SDS011;49686;51.880;5.632;2023-09-19T01:06:11;8.10;;;2.40;;
63536;SDS011;49686;51.880;5.632;2023-09-19T01:08:38;6.70;;;1.80;;
63536;SDS011;49686;51.880;5.632;2023-09-19T01:11:08;9.60;;;2.40;;
63536;SDS011;49686;51.880;5.632;2023-09-19T01:13:44;11.23;;;2.28;;
63536;SDS011;49686;51.880;5.632;2023-09-19T01:16:19;7.15;;;2.17;;
63536;SDS011;49686;51.880;5.632;2023-09-19T01:18:55;14.55;;;2.53;;
63536;SDS011;49686;51.880;5.632;2023-09-19T01:21:35;10.38;;;2.30;;
63536;SDS011;49686;51.880;5.632;2023-09-19T01:24:25;8.40;;;1.73;;
63536;SDS011;49686;51.880;5.632;2023-09-19T01:27:23;8.57;;;1.80;;
63536;SDS011;49686;51.880;5.632;2023-09-19T01:30:10;9.18;;;1.92;;
63536;SDS011;49686;51.880;5.632;2023-09-19T01:32:39;10.57;;;3.13;;
63536;SDS011;49686;51.880;5.632;2023-09-19T01:35:07;8.70;;;2.30;;
63536;SDS011;49686;51.880;5.632;2023-09-19T01:37:34;7.57;;;3.08;;
63536;SDS011;49686;51.880;5.632;2023-09-19T01:40:01;8.75;;;2.00;;
63536;SDS011;49686;51.880;5.632;2023-09-19T01:42:32;8.70;;;1.90;;
63536;SDS011;49686;51.880;5.632;2023-09-19T01:45:05;12.38;;;2.28;;
63536;SDS011;49686;51.880;5.632;2023-09-19T01:47:51;7.13;;;1.90;;
63536;SDS011;49686;51.880;5.632;2023-09-19T01:52:54;9.13;;;2.72;;
63536;SDS011;49686;51.880;5.632;2023-09-19T01:55:23;9.13;;;2.30;;
63536;SDS011;49686;51.880;5.632;2023-09-19T01:57:57;10.20;;;2.00;;
63536;SDS011;49686;51.880;5.632;2023-09-19T02:00:29;8.10;;;2.38;;
63536;SDS011;49686;51.880;5.632;2023-09-19T02:02:58;15.02;;;2.13;;
63536;SDS011;49686;51.880;5.632;2023-09-19T02:05:26;8.90;;;1.55;;
63536;SDS011;49686;51.880;5.632;2023-09-19T02:07:53;8.43;;;1.95;;
63536;SDS011;49686;51.880;5.632;2023-09-19T02:10:20;14.77;;;2.70;;
63536;SDS011;49686;51.880;5.632;2023-09-19T02:12:46;9.50;;;2.13;;
63536;SDS011;49686;51.880;5.632;2023-09-19T02:15:13;9.68;;;2.25;;
63536;SDS011;49686;51.880;5.632;2023-09-19T02:17:42;9.93;;;2.05;;
63536;SDS011;49686;51.880;5.632;2023-09-19T02:20:12;9.95;;;2.10;;
63536;SDS011;49686;51.880;5.632;2023-09-19T02:22:39;11.00;;;2.20;;
63536;SDS011;49686;51.880;5.632;2023-09-19T02:25:07;12.95;;;2.60;;
63536;SDS011;49686;51.880;5.632;2023-09-19T02:27:35;8.82;;;2.10;;
63536;SDS011;49686;51.880;5.632;2023-09-19T02:30:03;10.63;;;1.90;;
63536;SDS011;49686;51.880;5.632;2023-09-19T02:32:30;9.97;;;2.43;;
63536;SDS011;49686;51.880;5.632;2023-09-19T02:34:59;4.70;;;1.70;;
63536;SDS011;49686;51.880;5.632;2023-09-19T02:37:26;9.90;;;1.90;;
63536;SDS011;49686;51.880;5.632;2023-09-19T02:39:52;6.75;;;1.70;;
63536;SDS011;49686;51.880;5.632;2023-09-19T02:42:19;7.32;;;2.17;;
63536;SDS011;49686;51.880;5.632;2023-09-19T02:44:46;9.73;;;1.80;;
63536;SDS011;49686;51.880;5.632;2023-09-19T02:47:13;11.98;;;2.88;;
63536;SDS011;49686;51.880;5.632;2023-09-19T02:49:40;9.32;;;1.60;;
63536;SDS011;49686;51.880;5.632;2023-09-19T02:52:08;9.10;;;2.03;;
63536;SDS011;49686;51.880;5.632;2023-09-19T02:54:35;10.30;;;1.70;;
63536;SDS011;49686;51.880;5.632;2023-09-19T02:57:02;6.57;;;1.65;;
63536;SDS011;49686;51.880;5.632;2023-09-19T02:59:29;10.43;;;2.17;;
63536;SDS011;49686;51.880;5.632;2023-09-19T03:01:57;12.45;;;2.10;;
63536;SDS011;49686;51.880;5.632;2023-09-19T03:04:24;11.05;;;2.47;;
63536;SDS011;49686;51.880;5.632;2023-09-19T03:06:51;9.25;;;1.60;;
63536;SDS011;49686;51.880;5.632;2023-09-19T03:09:19;7.22;;;1.92;;
63536;SDS011;49686;51.880;5.632;2023-09-19T03:11:46;10.80;;;2.20;;
63536;SDS011;49686;51.880;5.632;2023-09-19T03:14:13;7.63;;;1.77;;
63536;SDS011;49686;51.880;5.632;2023-09-19T03:16:40;7.63;;;1.85;;
63536;SDS011;49686;51.880;5.632;2023-09-19T03:19:06;8.63;;;1.83;;
63536;SDS011;49686;51.880;5.632;2023-09-19T03:21:33;9.88;;;2.72;;
63536;SDS011;49686;51.880;5.632;2023-09-19T03:24:00;9.00;;;1.42;;
63536;SDS011;49686;51.880;5.632;2023-09-19T03:26:28;9.35;;;1.90;;
63536;SDS011;49686;51.880;5.632;2023-09-19T03:28:55;8.82;;;2.13;;
63536;SDS011;49686;51.880;5.632;2023-09-19T03:31:22;7.75;;;1.95;;
63536;SDS011;49686;51.880;5.632;2023-09-19T03:33:48;9.05;;;1.77;;
63536;SDS011;49686;51.880;5.632;2023-09-19T03:36:15;11.02;;;2.88;;
63536;SDS011;49686;51.880;5.632;2023-09-19T03:38:42;9.73;;;1.83;;
63536;SDS011;49686;51.880;5.632;2023-09-19T03:41:09;7.93;;;1.58;;
63536;SDS011;49686;51.880;5.632;2023-09-19T03:43:37;14.25;;;2.45;;
63536;SDS011;49686;51.880;5.632;2023-09-19T03:46:04;14.32;;;2.65;;
63536;SDS011;49686;51.880;5.632;2023-09-19T03:48:31;8.88;;;2.38;;
63536;SDS011;49686;51.880;5.632;2023-09-19T03:50:58;5.28;;;1.50;;
63536;SDS011;49686;51.880;5.632;2023-09-19T03:53:25;5.45;;;1.65;;
63536;SDS011;49686;51.880;5.632;2023-09-19T03:55:52;8.65;;;1.90;;
63536;SDS011;49686;51.880;5.632;2023-09-19T03:58:19;6.63;;;1.67;;
63536;SDS011;49686;51.880;5.632;2023-09-19T04:00:47;7.85;;;2.28;;
63536;SDS011;49686;51.880;5.632;2023-09-19T04:03:14;7.57;;;1.80;;
63536;SDS011;49686;51.880;5.632;2023-09-19T04:05:41;5.90;;;1.55;;
63536;SDS011;49686;51.880;5.632;2023-09-19T04:08:08;10.40;;;1.85;;
63536;SDS011;49686;51.880;5.632;2023-09-19T04:10:35;9.43;;;1.80;;
63536;SDS011;49686;51.880;5.632;2023-09-19T04:13:01;7.80;;;1.70;;
63536;SDS011;49686;51.880;5.632;2023-09-19T04:15:28;7.35;;;1.60;;
63536;SDS011;49686;51.880;5.632;2023-09-19T04:17:56;6.93;;;1.50;;
63536;SDS011;49686;51.880;5.632;2023-09-19T04:20:23;5.70;;;1.40;;
63536;SDS011;49686;51.880;5.632;2023-09-19T04:22:50;8.98;;;1.80;;
63536;SDS011;49686;51.880;5.632;2023-09-19T04:25:17;6.97;;;1.70;;
63536;SDS011;49686;51.880;5.632;2023-09-19T04:27:44;7.40;;;2.10;;
63536;SDS011;49686;51.880;5.632;2023-09-19T04:30:11;3.50;;;1.20;;
63536;SDS011;49686;51.880;5.632;2023-09-19T04:32:38;6.97;;;1.92;;
63536;SDS011;49686;51.880;5.632;2023-09-19T04:35:07;5.90;;;1.55;;
63536;SDS011;49686;51.880;5.632;2023-09-19T04:37:36;6.88;;;2.05;;
63536;SDS011;49686;51.880;5.632;2023-09-19T04:40:03;5.78;;;1.50;;
63536;SDS011;49686;51.880;5.632;2023-09-19T04:42:32;8.73;;;1.55;;
63536;SDS011;49686;51.880;5.632;2023-09-19T04:44:58;6.63;;;1.60;;
63536;SDS011;49686;51.880;5.632;2023-09-19T04:47:25;6.72;;;1.70;;
63536;SDS011;49686;51.880;5.632;2023-09-19T04:49:52;12.23;;;2.67;;
63536;SDS011;49686;51.880;5.632;2023-09-19T04:52:20;7.65;;;1.85;;
63536;SDS011;49686;51.880;5.632;2023-09-19T04:54:47;7.55;;;2.35;;
63536;SDS011;49686;51.880;5.632;2023-09-19T04:57:14;10.68;;;2.00;;
63536;SDS011;49686;51.880;5.632;2023-09-19T04:59:41;7.32;;;2.60;;
63536;SDS011;49686;51.880;5.632;2023-09-19T05:02:08;4.20;;;1.33;;
63536;SDS011;49686;51.880;5.632;2023-09-19T05:04:34;5.53;;;1.42;;
63536;SDS011;49686;51.880;5.632;2023-09-19T05:07:01;8.98;;;1.90;;
63536;SDS011;49686;51.880;5.632;2023-09-19T05:09:31;6.35;;;1.60;;
63536;SDS011;49686;51.880;5.632;2023-09-19T05:11:57;6.13;;;1.38;;
63536;SDS011;49686;51.880;5.632;2023-09-19T05:14:24;7.72;;;1.73;;
63536;SDS011;49686;51.880;5.632;2023-09-19T05:16:51;7.60;;;2.03;;
63536;SDS011;49686;51.880;5.632;2023-09-19T05:19:18;7.05;;;1.85;;
63536;SDS011;49686;51.880;5.632;2023-09-19T05:21:45;8.13;;;2.03;;
63536;SDS011;49686;51.880;5.632;2023-09-19T05:24:12;8.23;;;2.38;;
63536;SDS011;49686;51.880;5.632;2023-09-19T05:26:40;7.00;;;1.65;;
63536;SDS011;49686;51.880;5.632;2023-09-19T05:29:07;4.57;;;1.50;;
63536;SDS011;49686;51.880;5.632;2023-09-19T05:31:34;11.85;;;2.28;;
63536;SDS011;49686;51.880;5.632;2023-09-19T05:34:01;8.38;;;1.73;;
63536;SDS011;49686;51.880;5.632;2023-09-19T05:36:27;7.68;;;1.40;;
63536;SDS011;49686;51.880;5.632;2023-09-19T05:38:54;7.13;;;1.73;;
63536;SDS011;49686;51.880;5.632;2023-09-19T05:41:21;8.25;;;1.55;;
63536;SDS011;49686;51.880;5.632;2023-09-19T05:43:49;7.55;;;1.90;;
63536;SDS011;49686;51.880;5.632;2023-09-19T05:48:43;7.68;;;2.13;;
63536;SDS011;49686;51.880;5.632;2023-09-19T05:51:10;9.82;;;1.80;;
63536;SDS011;49686;51.880;5.632;2023-09-19T05:53:37;9.70;;;1.70;;
63536;SDS011;49686;51.880;5.632;2023-09-19T05:56:04;8.52;;;1.60;;
63536;SDS011;49686;51.880;5.632;2023-09-19T05:58:31;9.77;;;1.98;;
63536;SDS011;49686;51.880;5.632;2023-09-19T06:00:59;9.25;;;2.45;;
63536;SDS011;49686;51.880;5.632;2023-09-19T06:03:26;7.68;;;1.50;;
63536;SDS011;49686;51.880;5.632;2023-09-19T06:05:53;6.45;;;1.40;;
63536;SDS011;49686;51.880;5.632;2023-09-19T06:08:19;9.02;;;1.70;;
63536;SDS011;49686;51.880;5.632;2023-09-19T06:10:46;10.20;;;1.80;;
63536;SDS011;49686;51.880;5.632;2023-09-19T06:13:13;6.07;;;1.20;;
63536;SDS011;49686;51.880;5.632;2023-09-19T06:15:40;6.60;;;1.48;;
63536;SDS011;49686;51.880;5.632;2023-09-19T06:18:10;9.30;;;2.22;;
63536;SDS011;49686;51.880;5.632;2023-09-19T06:20:37;8.52;;;1.70;;
63536;SDS011;49686;51.880;5.632;2023-09-19T06:23:04;6.50;;;1.70;;
63536;SDS011;49686;51.880;5.632;2023-09-19T06:25:31;7.43;;;1.83;;
63536;SDS011;49686;51.880;5.632;2023-09-19T06:27:58;8.00;;;1.70;;
63536;SDS011;49686;51.880;5.632;2023-09-19T06:30:25;7.32;;;1.45;;
63536;SDS011;49686;51.880;5.632;2023-09-19T06:32:55;8.27;;;1.65;;
63536;SDS011;49686;51.880;5.632;2023-09-19T06:35:24;10.15;;;1.63;;
63536;SDS011;49686;51.880;5.632;2023-09-19T06:37:51;6.05;;;1.23;;
63536;SDS011;49686;51.880;5.632;2023-09-19T06:40:18;5.57;;;1.23;;
63536;SDS011;49686;51.880;5.632;2023-09-19T06:42:45;11.68;;;1.95;;
63536;SDS011;49686;51.880;5.632;2023-09-19T06:45:13;9.88;;;1.80;;
63536;SDS011;49686;51.880;5.632;2023-09-19T06:47:40;10.15;;;1.60;;
63536;SDS011;49686;51.880;5.632;2023-09-19T06:50:07;7.30;;;2.15;;
63536;SDS011;49686;51.880;5.632;2023-09-19T06:52:36;8.48;;;1.98;;
63536;SDS011;49686;51.880;5.632;2023-09-19T06:55:03;9.20;;;1.67;;
63536;SDS011;49686;51.880;5.632;2023-09-19T06:57:30;11.88;;;2.03;;
63536;SDS011;49686;51.880;5.632;2023-09-19T06:59:57;10.75;;;1.80;;
63536;SDS011;49686;51.880;5.632;2023-09-19T07:02:24;12.05;;;1.90;;
63536;SDS011;49686;51.880;5.632;2023-09-19T07:04:51;8.90;;;1.77;;
63536;SDS011;49686;51.880;5.632;2023-09-19T07:07:17;13.20;;;1.98;;
63536;SDS011;49686;51.880;5.632;2023-09-19T07:09:45;5.65;;;1.60;;
63536;SDS011;49686;51.880;5.632;2023-09-19T07:12:12;6.60;;;1.40;;
63536;SDS011;49686;51.880;5.632;2023-09-19T07:14:39;7.68;;;1.85;;
63536;SDS011;49686;51.880;5.632;2023-09-19T07:17:06;6.75;;;1.48;;
63536;SDS011;49686;51.880;5.632;2023-09-19T07:19:33;7.55;;;1.80;;
63536;SDS011;49686;51.880;5.632;2023-09-19T07:22:00;9.85;;;1.83;;
63536;SDS011;49686;51.880;5.632;2023-09-19T07:24:26;9.20;;;1.60;;
63536;SDS011;49686;51.880;5.632;2023-09-19T07:26:55;5.82;;;1.50;;
63536;SDS011;49686;51.880;5.632;2023-09-19T07:29:21;6.78;;;1.52;;
63536;SDS011;49686;51.880;5.632;2023-09-19T07:31:48;9.68;;;1.50;;
63536;SDS011;49686;51.880;5.632;2023-09-19T07:34:15;11.48;;;2.33;;
63536;SDS011;49686;51.880;5.632;2023-09-19T07:36:42;11.45;;;2.72;;
63536;SDS011;49686;51.880;5.632;2023-09-19T07:39:09;7.47;;;1.75;;
63536;SDS011;49686;51.880;5.632;2023-09-19T07:41:48;9.05;;;1.55;;
63536;SDS011;49686;51.880;5.632;2023-09-19T07:44:17;8.50;;;1.50;;
63536;SDS011;49686;51.880;5.632;2023-09-19T07:46:44;10.48;;;1.80;;
63536;SDS011;49686;51.880;5.632;2023-09-19T07:49:11;8.50;;;1.75;;
63536;SDS011;49686;51.880;5.632;2023-09-19T07:51:38;11.70;;;2.60;;
63536;SDS011;49686;51.880;5.632;2023-09-19T07:54:05;10.98;;;2.63;;
63536;SDS011;49686;51.880;5.632;2023-09-19T07:56:31;8.02;;;2.05;;
63536;SDS011;49686;51.880;5.632;2023-09-19T07:58:58;10.98;;;1.85;;
63536;SDS011;49686;51.880;5.632;2023-09-19T08:01:27;8.88;;;2.15;;
63536;SDS011;49686;51.880;5.632;2023-09-19T08:03:54;6.03;;;2.05;;
63536;SDS011;49686;51.880;5.632;2023-09-19T08:06:21;8.45;;;2.85;;
63536;SDS011;49686;51.880;5.632;2023-09-19T08:08:50;10.40;;;2.05;;
63536;SDS011;49686;51.880;5.632;2023-09-19T08:11:17;8.85;;;1.88;;
63536;SDS011;49686;51.880;5.632;2023-09-19T08:13:44;9.65;;;1.58;;
63536;SDS011;49686;51.880;5.632;2023-09-19T08:16:10;9.02;;;1.77;;
63536;SDS011;49686;51.880;5.632;2023-09-19T08:18:39;14.35;;;2.72;;
63536;SDS011;49686;51.880;5.632;2023-09-19T08:21:06;9.00;;;1.83;;
63536;SDS011;49686;51.880;5.632;2023-09-19T08:23:33;9.27;;;2.00;;
63536;SDS011;49686;51.880;5.632;2023-09-19T08:26:00;8.43;;;2.55;;
63536;SDS011;49686;51.880;5.632;2023-09-19T08:28:27;7.65;;;1.63;;
63536;SDS011;49686;51.880;5.632;2023-09-19T08:30:54;7.70;;;1.90;;
63536;SDS011;49686;51.880;5.632;2023-09-19T08:33:20;11.82;;;2.05;;
63536;SDS011;49686;51.880;5.632;2023-09-19T08:35:49;8.23;;;2.05;;
63536;SDS011;49686;51.880;5.632;2023-09-19T08:38:15;11.07;;;1.90;;
63536;SDS011;49686;51.880;5.632;2023-09-19T08:40:43;8.57;;;1.73;;
63536;SDS011;49686;51.880;5.632;2023-09-19T08:43:10;8.95;;;1.77;;
63536;SDS011;49686;51.880;5.632;2023-09-19T08:45:37;8.80;;;1.67;;
63536;SDS011;49686;51.880;5.632;2023-09-19T08:48:11;9.13;;;1.90;;
63536;SDS011;49686;51.880;5.632;2023-09-19T08:50:49;9.90;;;1.83;;
63536;SDS011;49686;51.880;5.632;2023-09-19T08:53:20;5.82;;;1.30;;
63536;SDS011;49686;51.880;5.632;2023-09-19T08:55:52;10.27;;;2.30;;
63536;SDS011;49686;51.880;5.632;2023-09-19T08:58:19;12.23;;;1.92;;
63536;SDS011;49686;51.880;5.632;2023-09-19T09:00:49;8.73;;;1.88;;
63536;SDS011;49686;51.880;5.632;2023-09-19T09:03:18;7.40;;;2.13;;
63536;SDS011;49686;51.880;5.632;2023-09-19T09:05:46;7.80;;;1.60;;
63536;SDS011;49686;51.880;5.632;2023-09-19T09:08:16;8.63;;;2.63;;
63536;SDS011;49686;51.880;5.632;2023-09-19T09:10:44;10.15;;;2.00;;
63536;SDS011;49686;51.880;5.632;2023-09-19T09:13:11;9.82;;;2.38;;
63536;SDS011;49686;51.880;5.632;2023-09-19T09:15:40;8.70;;;2.20;;
63536;SDS011;49686;51.880;5.632;2023-09-19T09:18:08;5.32;;;1.55;;
63536;SDS011;49686;51.880;5.632;2023-09-19T09:20:35;5.95;;;1.60;;
63536;SDS011;49686;51.880;5.632;2023-09-19T09:23:03;10.68;;;1.65;;
63536;SDS011;49686;51.880;5.632;2023-09-19T09:25:49;7.38;;;1.50;;
63536;SDS011;49686;51.880;5.632;2023-09-19T09:28:18;12.10;;;2.20;;
63536;SDS011;49686;51.880;5.632;2023-09-19T09:30:46;9.27;;;2.47;;
63536;SDS011;49686;51.880;5.632;2023-09-19T09:33:13;7.10;;;1.80;;
63536;SDS011;49686;51.880;5.632;2023-09-19T09:35:48;9.50;;;2.10;;
63536;SDS011;49686;51.880;5.632;2023-09-19T09:38:17;10.38;;;2.47;;
63536;SDS011;49686;51.880;5.632;2023-09-19T09:40:47;11.25;;;2.47;;
63536;SDS011;49686;51.880;5.632;2023-09-19T09:43:24;9.02;;;1.58;;
63536;SDS011;49686;51.880;5.632;2023-09-19T09:46:09;4.60;;;1.35;;
63536;SDS011;49686;51.880;5.632;2023-09-19T09:48:37;7.55;;;1.95;;
63536;SDS011;49686;51.880;5.632;2023-09-19T09:51:04;11.27;;;1.70;;
63536;SDS011;49686;51.880;5.632;2023-09-19T09:53:32;12.02;;;1.92;;
63536;SDS011;49686;51.880;5.632;2023-09-19T09:56:00;13.25;;;2.65;;
63536;SDS011;49686;51.880;5.632;2023-09-19T09:58:28;5.85;;;1.42;;
63536;SDS011;49686;51.880;5.632;2023-09-19T10:00:56;10.07;;;1.95;;
63536;SDS011;49686;51.880;5.632;2023-09-19T10:03:33;9.65;;;1.73;;
63536;SDS011;49686;51.880;5.632;2023-09-19T10:06:00;9.43;;;2.10;;
63536;SDS011;49686;51.880;5.632;2023-09-19T10:08:27;13.13;;;2.08;;
63536;SDS011;49686;51.880;5.632;2023-09-19T10:10:55;8.85;;;2.00;;
63536;SDS011;49686;51.880;5.632;2023-09-19T10:13:23;11.52;;;1.98;;
63536;SDS011;49686;51.880;5.632;2023-09-19T10:15:55;7.40;;;1.35;;
63536;SDS011;49686;51.880;5.632;2023-09-19T10:18:25;7.25;;;1.52;;
63536;SDS011;49686;51.880;5.632;2023-09-19T10:20:53;8.25;;;1.90;;
63536;SDS011;49686;51.880;5.632;2023-09-19T10:23:22;7.07;;;1.65;;
63536;SDS011;49686;51.880;5.632;2023-09-19T10:25:51;6.97;;;1.50;;
63536;SDS011;49686;51.880;5.632;2023-09-19T10:28:20;11.00;;;2.28;;
63536;SDS011;49686;51.880;5.632;2023-09-19T10:30:48;7.03;;;1.65;;
63536;SDS011;49686;51.880;5.632;2023-09-19T10:33:17;9.98;;;2.08;;
63536;SDS011;49686;51.880;5.632;2023-09-19T10:35:46;10.30;;;1.92;;
63536;SDS011;49686;51.880;5.632;2023-09-19T10:38:14;5.10;;;1.45;;
63536;SDS011;49686;51.880;5.632;2023-09-19T10:40:45;9.45;;;2.13;;
63536;SDS011;49686;51.880;5.632;2023-09-19T10:43:16;6.13;;;1.60;;
63536;SDS011;49686;51.880;5.632;2023-09-19T10:45:45;6.55;;;1.75;;
63536;SDS011;49686;51.880;5.632;2023-09-19T10:48:12;7.90;;;1.60;;
63536;SDS011;49686;51.880;5.632;2023-09-19T10:50:43;8.75;;;2.05;;
63536;SDS011;49686;51.880;5.632;2023-09-19T10:53:12;4.38;;;1.23;;
63536;SDS011;49686;51.880;5.632;2023-09-19T10:55:40;6.32;;;1.55;;
63536;SDS011;49686;51.880;5.632;2023-09-19T10:58:14;6.25;;;1.30;;
63536;SDS011;49686;51.880;5.632;2023-09-19T11:00:53;7.18;;;2.15;;
63536;SDS011;49686;51.880;5.632;2023-09-19T11:03:22;10.90;;;1.77;;
63536;SDS011;49686;51.880;5.632;2023-09-19T11:05:59;4.25;;;1.80;;
63536;SDS011;49686;51.880;5.632;2023-09-19T11:08:28;6.78;;;1.52;;
63536;SDS011;49686;51.880;5.632;2023-09-19T11:10:54;6.20;;;1.48;;
63536;SDS011;49686;51.880;5.632;2023-09-19T11:13:24;7.00;;;1.75;;
63536;SDS011;49686;51.880;5.632;2023-09-19T11:18:51;8.50;;;1.38;;
63536;SDS011;49686;51.880;5.632;2023-09-19T11:24:30;7.03;;;1.50;;
63536;SDS011;49686;51.880;5.632;2023-09-19T11:27:11;7.93;;;1.70;;
63536;SDS011;49686;51.880;5.632;2023-09-19T11:29:39;7.63;;;1.55;;
63536;SDS011;49686;51.880;5.632;2023-09-19T11:32:08;8.38;;;2.28;;
63536;SDS011;49686;51.880;5.632;2023-09-19T11:34:38;6.50;;;1.15;;
63536;SDS011;49686;51.880;5.632;2023-09-19T11:40:25;8.13;;;2.28;;
63536;SDS011;49686;51.880;5.632;2023-09-19T11:42:52;5.70;;;1.30;;
63536;SDS011;49686;51.880;5.632;2023-09-19T11:48:25;9.43;;;1.70;;
63536;SDS011;49686;51.880;5.632;2023-09-19T11:50:53;5.28;;;1.42;;
63536;SDS011;49686;51.880;5.632;2023-09-19T11:53:21;7.53;;;1.55;;
63536;SDS011;49686;51.880;5.632;2023-09-19T11:55:49;3.63;;;1.80;;
63536;SDS011;49686;51.880;5.632;2023-09-19T11:58:16;8.75;;;1.40;;
63536;SDS011;49686;51.880;5.632;2023-09-19T12:00:44;6.63;;;1.55;;
63536;SDS011;49686;51.880;5.632;2023-09-19T12:03:12;6.38;;;1.52;;
63536;SDS011;49686;51.880;5.632;2023-09-19T12:05:40;8.52;;;1.60;;
63536;SDS011;49686;51.880;5.632;2023-09-19T12:08:07;3.65;;;1.20;;
63536;SDS011;49686;51.880;5.632;2023-09-19T12:10:44;5.53;;;1.25;;
63536;SDS011;49686;51.880;5.632;2023-09-19T12:13:15;5.22;;;1.35;;
63536;SDS011;49686;51.880;5.632;2023-09-19T12:15:42;4.65;;;1.60;;
63536;SDS011;49686;51.880;5.632;2023-09-19T12:18:09;2.78;;;0.90;;
63536;SDS011;49686;51.880;5.632;2023-09-19T12:20:44;3.92;;;0.85;;
63536;SDS011;49686;51.880;5.632;2023-09-19T12:23:15;3.38;;;1.30;;
63536;SDS011;49686;51.880;5.632;2023-09-19T12:25:42;4.10;;;1.05;;
63536;SDS011;49686;51.880;5.632;2023-09-19T12:28:09;3.33;;;0.95;;
63536;SDS011;49686;51.880;5.632;2023-09-19T12:30:36;2.40;;;0.60;;
63536;SDS011;49686;51.880;5.632;2023-09-19T12:33:03;2.15;;;1.33;;
63536;SDS011;49686;51.880;5.632;2023-09-19T12:35:31;5.38;;;1.00;;
63536;SDS011;49686;51.880;5.632;2023-09-19T12:38:00;4.20;;;1.45;;
63536;SDS011;49686;51.880;5.632;2023-09-19T12:40:27;8.55;;;1.10;;
63536;SDS011;49686;51.880;5.632;2023-09-19T12:42:56;3.40;;;0.80;;
63536;SDS011;49686;51.880;5.632;2023-09-19T12:45:23;2.88;;;1.33;;
63536;SDS011;49686;51.880;5.632;2023-09-19T12:50:58;8.45;;;1.08;;
63536;SDS011;49686;51.880;5.632;2023-09-19T12:53:27;3.45;;;1.23;;
63536;SDS011;49686;51.880;5.632;2023-09-19T12:55:57;3.15;;;1.00;;
63536;SDS011;49686;51.880;5.632;2023-09-19T12:58:25;5.35;;;1.20;;
63536;SDS011;49686;51.880;5.632;2023-09-19T13:00:52;3.75;;;0.90;;
63536;SDS011;49686;51.880;5.632;2023-09-19T13:03:26;6.35;;;0.90;;
63536;SDS011;49686;51.880;5.632;2023-09-19T13:05:54;5.47;;;1.33;;
63536;SDS011;49686;51.880;5.632;2023-09-19T13:08:25;4.28;;;0.98;;
63536;SDS011;49686;51.880;5.632;2023-09-19T13:11:01;2.17;;;1.13;;
63536;SDS011;49686;51.880;5.632;2023-09-19T13:13:29;2.13;;;0.85;;
63536;SDS011;49686;51.880;5.632;2023-09-19T13:15:56;5.15;;;1.05;;
63536;SDS011;49686;51.880;5.632;2023-09-19T13:18:23;2.65;;;1.17;;
63536;SDS011;49686;51.880;5.632;2023-09-19T13:21:05;4.13;;;0.73;;
63536;SDS011;49686;51.880;5.632;2023-09-19T13:23:33;2.67;;;0.90;;
63536;SDS011;49686;51.880;5.632;2023-09-19T13:26:00;1.92;;;0.70;;
63536;SDS011;49686;51.880;5.632;2023-09-19T13:28:27;3.50;;;0.90;;
63536;SDS011;49686;51.880;5.632;2023-09-19T13:30:53;1.92;;;0.60;;
63536;SDS011;49686;51.880;5.632;2023-09-19T13:33:20;1.80;;;0.90;;
63536;SDS011;49686;51.880;5.632;2023-09-19T13:35:47;3.22;;;0.80;;
63536;SDS011;49686;51.880;5.632;2023-09-19T13:38:14;4.13;;;1.73;;
63536;SDS011;49686;51.880;5.632;2023-09-19T13:40:42;3.38;;;1.15;;
63536;SDS011;49686;51.880;5.632;2023-09-19T13:43:09;4.35;;;1.00;;
63536;SDS011;49686;51.880;5.632;2023-09-19T13:45:36;3.92;;;0.68;;
63536;SDS011;49686;51.880;5.632;2023-09-19T13:48:03;2.05;;;1.15;;
63536;SDS011;49686;51.880;5.632;2023-09-19T13:50:31;4.18;;;0.75;;
63536;SDS011;49686;51.880;5.632;2023-09-19T13:52:57;2.58;;;0.80;;
63536;SDS011;49686;51.880;5.632;2023-09-19T13:55:24;2.65;;;0.68;;
63536;SDS011;49686;51.880;5.632;2023-09-19T13:57:53;3.58;;;0.85;;
63536;SDS011;49686;51.880;5.632;2023-09-19T14:00:19;1.85;;;0.70;;
63536;SDS011;49686;51.880;5.632;2023-09-19T14:02:46;2.05;;;0.70;;
63536;SDS011;49686;51.880;5.632;2023-09-19T14:05:13;3.40;;;0.70;;
63536;SDS011;49686;51.880;5.632;2023-09-19T14:07:40;4.43;;;1.02;;
63536;SDS011;49686;51.880;5.632;2023-09-19T14:10:10;3.35;;;0.90;;
63536;SDS011;49686;51.880;5.632;2023-09-19T14:12:37;2.17;;;0.73;;
63536;SDS011;49686;51.880;5.632;2023-09-19T14:15:07;1.88;;;0.70;;
63536;SDS011;49686;51.880;5.632;2023-09-19T14:17:34;4.30;;;1.13;;
63536;SDS011;49686;51.880;5.632;2023-09-19T14:20:01;4.63;;;0.80;;
63536;SDS011;49686;51.880;5.632;2023-09-19T14:22:28;3.42;;;1.08;;
63536;SDS011;49686;51.880;5.632;2023-09-19T14:24:57;4.45;;;1.23;;
63536;SDS011;49686;51.880;5.632;2023-09-19T14:27:24;3.70;;;1.10;;
63536;SDS011;49686;51.880;5.632;2023-09-19T14:29:50;1.67;;;0.90;;
63536;SDS011;49686;51.880;5.632;2023-09-19T14:32:19;4.17;;;1.00;;
63536;SDS011;49686;51.880;5.632;2023-09-19T14:37:24;3.80;;;1.10;;
63536;SDS011;49686;51.880;5.632;2023-09-19T14:39:51;3.63;;;0.82;;
63536;SDS011;49686;51.880;5.632;2023-09-19T14:42:18;1.58;;;0.82;;
63536;SDS011;49686;51.880;5.632;2023-09-19T14:44:45;6.43;;;1.33;;
63536;SDS011;49686;51.880;5.632;2023-09-19T14:47:12;3.42;;;0.90;;
63536;SDS011;49686;51.880;5.632;2023-09-19T14:49:38;3.08;;;1.08;;
63536;SDS011;49686;51.880;5.632;2023-09-19T14:52:06;3.97;;;0.98;;
63536;SDS011;49686;51.880;5.632;2023-09-19T14:54:36;6.25;;;1.10;;
63536;SDS011;49686;51.880;5.632;2023-09-19T14:57:03;5.05;;;1.10;;
63536;SDS011;49686;51.880;5.632;2023-09-19T14:59:30;5.60;;;1.02;;
63536;SDS011;49686;51.880;5.632;2023-09-19T15:01:57;3.17;;;0.93;;
63536;SDS011;49686;51.880;5.632;2023-09-19T15:04:24;3.78;;;1.00;;
63536;SDS011;49686;51.880;5.632;2023-09-19T15:06:51;3.55;;;0.93;;
63536;SDS011;49686;51.880;5.632;2023-09-19T15:09:18;2.85;;;0.70;;
63536;SDS011;49686;51.880;5.632;2023-09-19T15:11:46;2.03;;;0.90;;
63536;SDS011;49686;51.880;5.632;2023-09-19T15:14:12;4.57;;;1.20;;
63536;SDS011;49686;51.880;5.632;2023-09-19T15:16:39;3.00;;;1.20;;